Time;durP1;ratioP1;P1;durP2;ratioP2;P2;SDS_P1;SDS_P2;PMS_P1;PMS_P2;Temp;Humidity;BMP_temperature;BMP_pressure;BME280_temperature;BME280_humidity;BME280_pressure;Samples;Min_cycle;Max_cycle;Signal;HPM_P1;HPM_P2
2024/04/07 00:02:26;;;;;;;;;;;21.20;47.40;;;;;;8360530;28;20431;-60
2024/04/07 00:06:28;;;;;;;;;;;21.30;47.30;;;;;;8360364;28;19913;-58
2024/04/07 00:10:30;;;;;;;;;;;21.20;47.20;;;;;;8355017;28;19921;-57
2024/04/07 00:14:31;;;;;;;;;;;21.20;47.10;;;;;;8331306;27;19925;-57
2024/04/07 00:18:34;;;;;;;;;;;21.10;46.80;;;;;;8329334;28;20424;-58
2024/04/07 00:22:35;;;;;;;;;;;21.00;46.70;;;;;;8352466;28;19913;-57
2024/04/07 00:26:35;;;;;;;;;;;21.10;46.20;;;;;;8342771;28;19951;-57
2024/04/07 00:30:36;;;;;;;;;;;21.10;46.40;;;;;;8358016;28;19924;-57
2024/04/07 00:34:37;;;;;;;;;;;21.00;46.50;;;;;;8357893;28;19938;-58
2024/04/07 00:38:39;;;;;;;;;;;21.00;46.50;;;;;;8357682;28;19961;-56
2024/04/07 00:42:40;;;;;;;;;;;21.00;46.40;;;;;;8356134;28;19920;-58
2024/04/07 00:46:42;;;;;;;;;;;20.90;46.30;;;;;;8357364;28;19962;-56
2024/04/07 00:50:48;;;;;;;;;;;20.90;46.40;;;;;;8356560;28;19916;-57
2024/04/07 00:54:48;;;;;;;;;;;20.90;46.30;;;;;;8355687;28;19921;-58
2024/04/07 00:58:49;;;;;;;;;;;20.90;47.00;;;;;;8355699;28;19924;-56
2024/04/07 01:02:50;;;;;;;;;;;20.90;46.70;;;;;;8355824;28;19958;-58
2024/04/07 01:06:51;;;;;;;;;;;20.90;46.90;;;;;;8355945;28;19976;-56
2024/04/07 01:10:52;;;;;;;;;;;20.90;46.90;;;;;;8357110;28;19917;-57
2024/04/07 01:14:52;;;;;;;;;;;20.80;46.90;;;;;;8338745;28;20282;-57
2024/04/07 01:18:53;;;;;;;;;;;20.80;46.90;;;;;;8348905;27;19925;-58
2024/04/07 01:22:56;;;;;;;;;;;20.80;46.80;;;;;;8331434;28;19920;-56
2024/04/07 01:26:57;;;;;;;;;;;20.70;46.60;;;;;;8356461;28;19913;-55
2024/04/07 01:30:57;;;;;;;;;;;20.70;47.20;;;;;;8356183;28;19921;-54
2024/04/07 01:34:58;;;;;;;;;;;20.60;46.60;;;;;;8355455;28;20270;-54
2024/04/07 01:38:58;;;;;;;;;;;20.60;46.70;;;;;;8356980;28;19913;-53
2024/04/07 01:42:59;;;;;;;;;;;20.60;46.70;;;;;;8355993;28;19913;-56
2024/04/07 01:46:59;;;;;;;;;;;20.60;46.60;;;;;;8356518;28;19948;-56
2024/04/07 01:51:00;;;;;;;;;;;20.60;46.60;;;;;;8355882;28;19916;-55
2024/04/07 01:55:01;;;;;;;;;;;20.60;46.90;;;;;;8355744;28;20039;-53
2024/04/07 01:59:03;;;;;;;;;;;20.60;47.00;;;;;;8355552;28;19916;-55
2024/04/07 02:03:04;;;;;;;;;;;20.60;46.80;;;;;;8354121;27;19913;-55
2024/04/07 02:07:04;;;;;;;;;;;20.60;46.50;;;;;;8321282;28;19920;-55
2024/04/07 02:11:05;;;;;;;;;;;20.50;46.70;;;;;;8341133;28;19939;-56
2024/04/07 02:15:05;;;;;;;;;;;20.50;46.80;;;;;;8355972;28;20277;-55
2024/04/07 02:19:06;;;;;;;;;;;20.50;46.70;;;;;;8354937;28;19928;-55
2024/04/07 02:23:07;;;;;;;;;;;20.50;46.80;;;;;;8354928;28;19935;-55
2024/04/07 02:27:09;;;;;;;;;;;20.40;46.70;;;;;;8355337;28;19917;-54
2024/04/07 02:31:10;;;;;;;;;;;20.40;46.70;;;;;;8355677;28;19916;-55
2024/04/07 02:35:12;;;;;;;;;;;20.40;46.70;;;;;;8354572;28;19977;-57
2024/04/07 02:39:17;;;;;;;;;;;20.40;46.70;;;;;;8354913;28;20424;-57
2024/04/07 02:43:18;;;;;;;;;;;20.40;46.60;;;;;;8354485;28;19956;-55
2024/04/07 02:51:37;;;;;;;;;;;20.40;46.60;;;;;;8360382;28;20370;-58
2024/04/07 02:55:38;;;;;;;;;;;20.40;46.70;;;;;;8360184;28;20297;-58
2024/04/07 02:59:39;;;;;;;;;;;20.40;46.70;;;;;;8342370;28;19953;-58
2024/04/07 03:03:39;;;;;;;;;;;20.40;47.30;;;;;;8341942;28;19913;-57
2024/04/07 03:07:40;;;;;;;;;;;20.40;47.50;;;;;;8359984;28;19913;-57
2024/04/07 03:11:40;;;;;;;;;;;20.40;47.30;;;;;;8361795;27;19995;-58
2024/04/07 03:15:41;;;;;;;;;;;20.40;46.80;;;;;;8360156;28;19921;-57
2024/04/07 03:19:41;;;;;;;;;;;20.40;47.00;;;;;;8359518;27;20500;-56
2024/04/07 03:23:42;;;;;;;;;;;20.40;46.70;;;;;;8359490;28;19909;-58
2024/04/07 03:27:43;;;;;;;;;;;20.40;46.80;;;;;;8359485;28;19913;-56
2024/04/07 03:31:44;;;;;;;;;;;20.30;46.80;;;;;;8359622;28;19952;-58
2024/04/07 03:35:44;;;;;;;;;;;20.30;47.30;;;;;;8359056;28;19930;-59
2024/04/07 03:39:45;;;;;;;;;;;20.30;47.30;;;;;;8359335;28;19913;-58
2024/04/07 03:43:45;;;;;;;;;;;20.40;47.20;;;;;;8358998;28;20334;-56
2024/04/07 03:47:48;;;;;;;;;;;20.30;47.10;;;;;;8358982;28;19920;-56
2024/04/07 03:51:48;;;;;;;;;;;20.40;47.10;;;;;;8359165;28;20458;-56
2024/04/07 03:55:49;;;;;;;;;;;20.30;47.10;;;;;;8358347;28;19920;-56
2024/04/07 03:59:49;;;;;;;;;;;20.30;47.20;;;;;;8358519;28;19917;-56
2024/04/07 04:03:50;;;;;;;;;;;20.40;47.00;;;;;;8359113;28;19909;-56
2024/04/07 04:07:50;;;;;;;;;;;20.40;47.10;;;;;;8358439;28;20439;-56
2024/04/07 04:11:51;;;;;;;;;;;20.40;47.00;;;;;;8360233;27;20392;-55
2024/04/07 04:15:52;;;;;;;;;;;20.40;46.80;;;;;;8358802;28;19976;-55
2024/04/07 04:19:52;;;;;;;;;;;20.30;47.00;;;;;;8358006;27;19929;-55
2024/04/07 04:23:53;;;;;;;;;;;20.30;46.90;;;;;;8357871;28;20461;-55
2024/04/07 04:27:54;;;;;;;;;;;20.30;46.90;;;;;;8357981;28;19913;-56
2024/04/07 04:31:55;;;;;;;;;;;20.30;46.90;;;;;;8357979;28;19913;-56
2024/04/07 04:35:55;;;;;;;;;;;20.30;46.90;;;;;;8339718;28;20379;-54
2024/04/07 04:39:56;;;;;;;;;;;20.30;47.10;;;;;;8357655;28;19932;-55
2024/04/07 04:43:56;;;;;;;;;;;20.30;47.40;;;;;;8357274;28;19913;-55
2024/04/07 04:47:57;;;;;;;;;;;20.30;47.20;;;;;;8357362;28;20007;-55
2024/04/07 04:51:57;;;;;;;;;;;20.30;47.10;;;;;;8357741;28;19912;-54
2024/04/07 04:55:59;;;;;;;;;;;20.30;47.20;;;;;;8339978;28;19917;-56
2024/04/07 04:59:59;;;;;;;;;;;20.30;47.30;;;;;;8357104;28;19913;-55
2024/04/07 05:04:00;;;;;;;;;;;20.30;47.20;;;;;;8356879;28;20446;-55
2024/04/07 05:08:00;;;;;;;;;;;20.30;47.00;;;;;;8356798;28;19917;-55
2024/04/07 05:12:02;;;;;;;;;;;20.20;47.70;;;;;;8359339;27;19917;-55
2024/04/07 05:16:04;;;;;;;;;;;20.20;47.80;;;;;;8356570;28;19917;-55
2024/04/07 05:20:04;;;;;;;;;;;20.20;47.70;;;;;;8356400;28;20019;-55
2024/04/07 05:24:06;;;;;;;;;;;20.20;47.80;;;;;;8356752;28;19920;-56
2024/04/07 05:28:07;;;;;;;;;;;20.20;47.80;;;;;;8356158;28;19956;-56
2024/04/07 05:32:08;;;;;;;;;;;20.20;47.80;;;;;;8356353;28;19920;-56
2024/04/07 05:36:09;;;;;;;;;;;20.20;48.00;;;;;;8356160;28;19916;-55
2024/04/07 05:40:10;;;;;;;;;;;20.20;48.20;;;;;;8356674;28;20011;-54
2024/04/07 05:44:10;;;;;;;;;;;20.20;47.80;;;;;;8355901;27;19912;-56
2024/04/07 05:48:11;;;;;;;;;;;20.20;47.80;;;;;;8355868;28;19942;-55
2024/04/07 05:52:11;;;;;;;;;;;20.20;47.80;;;;;;8355987;28;19916;-55
2024/04/07 05:56:12;;;;;;;;;;;20.20;47.90;;;;;;8355652;28;19960;-55
2024/04/07 06:00:13;;;;;;;;;;;20.20;48.40;;;;;;8355328;28;19920;-55
2024/04/07 06:04:14;;;;;;;;;;;20.20;47.90;;;;;;8355652;28;19913;-56
2024/04/07 06:08:14;;;;;;;;;;;20.20;47.80;;;;;;8355362;28;19920;-56
2024/04/07 06:12:15;;;;;;;;;;;20.20;47.90;;;;;;8356935;27;19966;-56
2024/04/07 06:16:16;;;;;;;;;;;20.20;47.90;;;;;;8355283;28;19916;-56
2024/04/07 06:20:17;;;;;;;;;;;20.20;47.90;;;;;;8358019;27;19925;-56
2024/04/07 06:24:18;;;;;;;;;;;20.20;47.90;;;;;;8360801;28;19956;-56
2024/04/07 06:28:19;;;;;;;;;;;20.20;47.90;;;;;;8361001;28;20410;-56
2024/04/07 06:32:20;;;;;;;;;;;20.20;47.70;;;;;;8361257;28;19917;-55
2024/04/07 06:36:20;;;;;;;;;;;20.20;47.70;;;;;;8360646;28;19920;-55
2024/04/07 06:40:21;;;;;;;;;;;20.20;47.40;;;;;;8361190;28;19920;-55
2024/04/07 06:44:22;;;;;;;;;;;20.20;47.60;;;;;;8360519;27;19920;-55
2024/04/07 06:48:22;;;;;;;;;;;20.30;47.60;;;;;;8342806;28;20303;-54
2024/04/07 06:52:23;;;;;;;;;;;20.30;47.50;;;;;;8360121;28;19966;-53
2024/04/07 06:56:24;;;;;;;;;;;20.30;47.60;;;;;;8360225;28;20289;-56
2024/04/07 07:00:25;;;;;;;;;;;20.30;47.50;;;;;;8359937;28;19917;-55
2024/04/07 07:04:25;;;;;;;;;;;20.30;47.80;;;;;;8360286;28;19993;-54
2024/04/07 07:08:26;;;;;;;;;;;20.20;47.80;;;;;;8359886;28;20321;-54
2024/04/07 07:12:26;;;;;;;;;;;20.20;47.90;;;;;;8361277;27;19917;-53
2024/04/07 07:16:27;;;;;;;;;;;20.20;47.80;;;;;;8359470;28;19916;-55
2024/04/07 07:20:27;;;;;;;;;;;20.20;47.90;;;;;;8465611;27;19923;-55
2024/04/07 07:24:28;;;;;;;;;;;20.20;47.80;;;;;;8533649;27;19911;-55
2024/04/07 07:28:29;;;;;;;;;;;20.20;48.50;;;;;;8533612;27;20353;-54
2024/04/07 07:32:30;;;;;;;;;;;20.20;48.50;;;;;;8532837;27;19915;-54
2024/04/07 07:36:31;;;;;;;;;;;20.20;48.60;;;;;;8533541;27;19919;-54
2024/04/07 07:40:31;;;;;;;;;;;20.20;48.50;;;;;;8533015;27;19915;-53
2024/04/07 07:44:32;;;;;;;;;;;20.20;48.50;;;;;;8505414;27;20010;-55
2024/04/07 07:48:34;;;;;;;;;;;20.20;48.50;;;;;;8498469;27;20432;-55
2024/04/07 07:52:35;;;;;;;;;;;20.20;48.50;;;;;;8498458;27;19919;-52
2024/04/07 07:56:35;;;;;;;;;;;20.20;48.50;;;;;;8498615;27;19954;-52
2024/04/07 08:00:36;;;;;;;;;;;20.20;48.50;;;;;;8498109;27;19915;-54
2024/04/07 08:04:37;;;;;;;;;;;20.20;48.50;;;;;;8498046;27;19919;-53
2024/04/07 08:08:38;;;;;;;;;;;20.20;48.40;;;;;;8497819;27;20395;-55
2024/04/07 08:12:40;;;;;;;;;;;20.20;48.30;;;;;;8496343;27;20280;-54
2024/04/07 08:16:40;;;;;;;;;;;20.20;48.30;;;;;;8490877;27;19927;-54
2024/04/07 08:20:42;;;;;;;;;;;20.20;48.20;;;;;;8404355;27;19932;-55
2024/04/07 08:24:42;;;;;;;;;;;20.20;48.20;;;;;;8357953;28;19916;-57
2024/04/07 08:28:43;;;;;;;;;;;20.20;48.20;;;;;;8357865;28;19913;-55
2024/04/07 08:32:44;;;;;;;;;;;20.20;48.00;;;;;;8358081;28;19973;-55
2024/04/07 08:36:44;;;;;;;;;;;20.20;48.00;;;;;;8357494;28;19995;-56
2024/04/07 08:40:46;;;;;;;;;;;20.20;48.00;;;;;;8357410;28;19919;-56
2024/04/07 08:44:47;;;;;;;;;;;20.20;48.30;;;;;;8322360;28;19913;-56
2024/04/07 08:48:51;;;;;;;;;;;20.20;48.30;;;;;;8324250;28;19913;-56
2024/04/07 08:52:55;;;;;;;;;;;20.10;48.30;;;;;;8324339;28;20004;-55
2024/04/07 08:56:58;;;;;;;;;;;20.10;48.40;;;;;;8324686;28;19917;-57
2024/04/07 09:01:00;;;;;;;;;;;20.10;48.00;;;;;;8306380;28;19935;-56
2024/04/07 09:05:00;;;;;;;;;;;20.10;48.00;;;;;;8354085;28;19909;-58
2024/04/07 09:09:01;;;;;;;;;;;20.10;47.90;;;;;;8356651;27;19923;-57
2024/04/07 09:13:02;;;;;;;;;;;20.20;47.80;;;;;;8358812;27;19917;-58
2024/04/07 09:17:04;;;;;;;;;;;20.10;47.70;;;;;;8356856;28;20510;-57
2024/04/07 09:21:04;;;;;;;;;;;20.10;47.70;;;;;;8356375;28;19925;-55
2024/04/07 09:25:05;;;;;;;;;;;20.10;47.70;;;;;;8338617;28;19912;-57
2024/04/07 09:29:06;;;;;;;;;;;20.10;47.70;;;;;;8356197;28;20335;-59
2024/04/07 09:33:07;;;;;;;;;;;20.10;47.60;;;;;;8356341;28;20334;-57
2024/04/07 09:37:08;;;;;;;;;;;20.10;47.50;;;;;;8356338;28;19967;-59
2024/04/07 09:41:10;;;;;;;;;;;20.10;47.50;;;;;;8338068;28;19913;-60
2024/04/07 09:45:11;;;;;;;;;;;20.10;47.50;;;;;;8355641;28;19913;-59
2024/04/07 09:49:11;;;;;;;;;;;20.10;48.20;;;;;;8350478;28;19921;-57
2024/04/07 09:53:15;;;;;;;;;;;20.10;49.90;;;;;;8322952;28;19909;-60
2024/04/07 09:57:16;;;;;;;;;;;20.20;49.30;;;;;;8322393;28;19913;-59
2024/04/07 10:01:21;;;;;;;;;;;20.20;49.90;;;;;;8322577;28;19951;-59
2024/04/07 10:05:21;;;;;;;;;;;20.20;49.80;;;;;;8355371;28;20325;-59
2024/04/07 10:09:22;;;;;;;;;;;20.20;49.70;;;;;;8355218;28;20054;-58
2024/04/07 10:13:23;;;;;;;;;;;20.20;49.60;;;;;;8357152;27;19919;-57
2024/04/07 10:17:25;;;;;;;;;;;20.20;49.30;;;;;;8355045;28;20271;-59
2024/04/07 10:21:26;;;;;;;;;;;20.30;48.40;;;;;;8355037;28;19921;-61
2024/04/07 10:25:35;;;;;;;;;;;20.40;47.50;;;;;;8354724;28;20361;-60
2024/04/07 10:29:37;;;;;;;;;;;20.40;45.30;;;;;;8354825;28;20423;-60
2024/04/07 10:33:38;;;;;;;;;;;20.50;46.30;;;;;;8354846;28;19928;-60
2024/04/07 10:37:41;;;;;;;;;;;20.50;45.90;;;;;;8354917;28;19909;-59
2024/04/07 10:41:42;;;;;;;;;;;20.50;46.20;;;;;;8354754;28;19919;-57
2024/04/07 10:45:43;;;;;;;;;;;20.50;44.80;;;;;;8354602;28;20301;-56
2024/04/07 10:49:43;;;;;;;;;;;20.50;44.70;;;;;;8354425;28;20015;-56
2024/04/07 10:53:44;;;;;;;;;;;20.50;44.60;;;;;;8354336;28;20453;-56
2024/04/07 10:57:45;;;;;;;;;;;20.50;44.20;;;;;;8354267;28;20297;-56
2024/04/07 11:01:46;;;;;;;;;;;20.60;43.40;;;;;;8354428;28;19915;-54
2024/04/07 11:05:46;;;;;;;;;;;20.60;43.30;;;;;;8336737;28;19928;-53
2024/04/07 11:09:47;;;;;;;;;;;20.50;44.40;;;;;;8359724;28;19940;-55
2024/04/07 11:13:48;;;;;;;;;;;20.50;43.50;;;;;;8361704;27;20393;-55
2024/04/07 11:17:48;;;;;;;;;;;20.50;44.50;;;;;;8359794;28;19920;-55
2024/04/07 11:21:50;;;;;;;;;;;20.50;44.50;;;;;;8359564;28;19925;-56
2024/04/07 11:25:52;;;;;;;;;;;20.50;44.40;;;;;;8359979;28;19964;-54
2024/04/07 11:29:53;;;;;;;;;;;20.50;44.30;;;;;;8359307;28;19972;-56
2024/04/07 11:33:54;;;;;;;;;;;20.60;44.00;;;;;;8354847;28;19917;-55
2024/04/07 11:37:55;;;;;;;;;;;20.60;44.40;;;;;;8335320;28;19920;-53
2024/04/07 11:41:55;;;;;;;;;;;20.70;45.80;;;;;;8340153;27;19969;-51
2024/04/07 11:45:56;;;;;;;;;;;20.70;46.60;;;;;;8355011;27;19913;-54
2024/04/07 11:49:56;;;;;;;;;;;20.90;47.20;;;;;;8358445;28;19913;-53
2024/04/07 11:53:57;;;;;;;;;;;20.90;49.50;;;;;;8357656;28;20358;-60
2024/04/07 11:57:57;;;;;;;;;;;20.90;49.00;;;;;;8360531;28;19961;-59
2024/04/07 12:01:58;;;;;;;;;;;21.00;49.20;;;;;;8360517;28;19917;-58
2024/04/07 12:05:59;;;;;;;;;;;21.00;49.20;;;;;;8360082;28;20000;-56
2024/04/07 12:10:00;;;;;;;;;;;21.00;48.70;;;;;;8360244;28;19913;-57
2024/04/07 12:14:02;;;;;;;;;;;21.00;48.40;;;;;;8360953;27;19913;-57
2024/04/07 12:18:02;;;;;;;;;;;21.00;48.70;;;;;;8359065;27;19919;-52
2024/04/07 12:22:07;;;;;;;;;;;21.00;48.50;;;;;;8360114;28;19913;-60
2024/04/07 12:26:08;;;;;;;;;;;21.00;48.30;;;;;;8354312;27;19916;-60
2024/04/07 12:30:09;;;;;;;;;;;21.10;47.50;;;;;;8348758;28;19920;-58
2024/04/07 12:34:10;;;;;;;;;;;21.20;47.30;;;;;;8334074;27;19947;-60
2024/04/07 12:38:10;;;;;;;;;;;21.20;47.20;;;;;;8351677;27;19917;-58
2024/04/07 12:42:11;;;;;;;;;;;21.30;47.10;;;;;;8345400;28;19931;-57
2024/04/07 12:46:11;;;;;;;;;;;21.40;46.90;;;;;;8351723;27;20347;-60
2024/04/07 12:50:12;;;;;;;;;;;21.50;46.90;;;;;;8335481;28;19924;-60
2024/04/07 12:54:13;;;;;;;;;;;21.50;47.00;;;;;;8340280;28;19917;-57
2024/04/07 12:58:13;;;;;;;;;;;21.40;46.60;;;;;;8346686;28;19966;-67
2024/04/07 13:02:14;;;;;;;;;;;21.50;46.30;;;;;;8340970;28;19965;-59
2024/04/07 13:06:14;;;;;;;;;;;21.50;46.70;;;;;;8346218;27;19946;-63
2024/04/07 13:10:17;;;;;;;;;;;21.70;46.30;;;;;;8346893;27;19925;-61
2024/04/07 13:14:17;;;;;;;;;;;21.80;46.30;;;;;;8376506;27;20313;-60
2024/04/07 13:18:22;;;;;;;;;;;21.90;45.90;;;;;;8345767;27;19921;-60
2024/04/07 13:22:22;;;;;;;;;;;21.80;46.20;;;;;;8338426;28;20737;-60
2024/04/07 13:26:23;;;;;;;;;;;21.80;46.50;;;;;;8329436;28;20273;-61
2024/04/07 13:30:25;;;;;;;;;;;21.80;46.50;;;;;;8347263;28;19917;-62
2024/04/07 13:34:26;;;;;;;;;;;21.80;46.80;;;;;;8345284;27;20405;-64
2024/04/07 13:38:26;;;;;;;;;;;21.90;46.40;;;;;;8378710;27;20297;-57
2024/04/07 13:42:27;;;;;;;;;;;22.00;45.40;;;;;;8341758;27;19916;-60
2024/04/07 13:46:27;;;;;;;;;;;22.10;46.70;;;;;;8338501;27;19970;-53
2024/04/07 13:50:28;;;;;;;;;;;22.10;46.00;;;;;;8342127;28;19919;-59
2024/04/07 13:54:28;;;;;;;;;;;22.30;45.90;;;;;;8341172;28;20037;-58
2024/04/07 13:58:29;;;;;;;;;;;22.40;46.00;;;;;;8348573;28;19913;-57
2024/04/07 14:02:29;;;;;;;;;;;22.50;43.90;;;;;;8345851;28;19921;-58
2024/04/07 14:06:30;;;;;;;;;;;22.40;44.80;;;;;;8340708;27;19913;-54
2024/04/07 14:10:31;;;;;;;;;;;22.40;44.70;;;;;;8357521;27;19908;-58
2024/04/07 14:14:32;;;;;;;;;;;22.50;44.20;;;;;;8426626;27;19960;-58
2024/04/07 14:18:32;;;;;;;;;;;22.50;44.60;;;;;;8405498;27;19920;-57
2024/04/07 14:22:33;;;;;;;;;;;22.50;45.20;;;;;;8381626;28;19917;-58
2024/04/07 14:26:33;;;;;;;;;;;22.50;44.80;;;;;;8323556;28;20271;-58
2024/04/07 14:30:35;;;;;;;;;;;22.50;44.00;;;;;;8329713;28;19916;-58
2024/04/07 14:34:35;;;;;;;;;;;22.50;43.40;;;;;;8410852;27;19924;-59
2024/04/07 14:38:36;;;;;;;;;;;22.50;43.10;;;;;;8338229;28;19956;-60
2024/04/07 14:42:36;;;;;;;;;;;22.50;42.30;;;;;;8365402;27;19927;-49
2024/04/07 14:46:37;;;;;;;;;;;22.50;43.40;;;;;;8351648;27;19925;-58
2024/04/07 14:50:37;;;;;;;;;;;22.60;42.50;;;;;;8352076;28;19923;-58
2024/04/07 14:54:38;;;;;;;;;;;22.60;42.80;;;;;;8311908;27;20423;-54
2024/04/07 14:58:38;;;;;;;;;;;22.60;41.00;;;;;;8353923;28;19983;-60
2024/04/07 15:02:39;;;;;;;;;;;22.60;41.70;;;;;;8373324;27;19917;-59
2024/04/07 15:06:40;;;;;;;;;;;22.60;41.50;;;;;;8349583;27;19992;-57
2024/04/07 15:10:57;;;;;;;;;;;22.60;42.00;;;;;;8340274;27;20367;-56
2024/04/07 15:14:57;;;;;;;;;;;22.80;41.80;;;;;;8342556;27;19921;-61
2024/04/07 15:18:58;;;;;;;;;;;22.80;41.30;;;;;;8357097;27;19917;-54
2024/04/07 15:22:59;;;;;;;;;;;22.90;40.90;;;;;;8357442;27;20031;-61
2024/04/07 15:26:59;;;;;;;;;;;22.90;39.50;;;;;;8340849;27;20370;-61
2024/04/07 15:31:01;;;;;;;;;;;22.90;41.40;;;;;;8340180;28;19917;-62
2024/04/07 15:35:01;;;;;;;;;;;22.90;41.20;;;;;;8327182;28;19924;-65
2024/04/07 15:39:02;;;;;;;;;;;22.90;42.30;;;;;;8350409;28;19958;-62
2024/04/07 15:43:02;;;;;;;;;;;22.80;42.60;;;;;;8331529;28;19921;-61
2024/04/07 15:47:04;;;;;;;;;;;22.70;43.10;;;;;;8349248;28;19961;-62
2024/04/07 15:51:07;;;;;;;;;;;22.70;43.40;;;;;;8331365;27;19917;-59
2024/04/07 15:55:08;;;;;;;;;;;22.70;43.90;;;;;;8327762;27;20039;-60
2024/04/07 15:59:09;;;;;;;;;;;22.80;44.50;;;;;;8346588;28;19913;-59
2024/04/07 16:03:10;;;;;;;;;;;22.70;45.20;;;;;;8327649;28;20386;-62
2024/04/07 16:07:11;;;;;;;;;;;22.70;44.90;;;;;;8338751;28;20327;-58
2024/04/07 16:11:11;;;;;;;;;;;22.70;45.30;;;;;;8340856;27;19932;-62
2024/04/07 16:15:12;;;;;;;;;;;22.70;45.50;;;;;;8326534;28;20409;-60
2024/04/07 16:19:12;;;;;;;;;;;22.80;46.00;;;;;;8329212;27;19929;-60
2024/04/07 16:23:13;;;;;;;;;;;22.70;46.00;;;;;;8390412;27;20264;-60
2024/04/07 16:27:13;;;;;;;;;;;22.70;46.40;;;;;;8337432;28;20279;-65
2024/04/07 16:31:14;;;;;;;;;;;22.70;46.60;;;;;;8358154;27;19921;-59
2024/04/07 16:35:15;;;;;;;;;;;22.70;46.90;;;;;;8372990;27;20379;-54
2024/04/07 16:39:15;;;;;;;;;;;22.70;47.60;;;;;;8370599;27;20369;-57
2024/04/07 16:43:16;;;;;;;;;;;22.70;47.70;;;;;;8367930;27;20009;-59
2024/04/07 16:47:17;;;;;;;;;;;22.60;47.70;;;;;;8362782;27;20350;-57
2024/04/07 16:51:17;;;;;;;;;;;22.70;47.60;;;;;;8346944;27;19913;-56
2024/04/07 16:55:19;;;;;;;;;;;22.70;47.60;;;;;;8342252;27;19940;-59
2024/04/07 16:59:20;;;;;;;;;;;22.80;46.40;;;;;;8362996;27;20341;-55
2024/04/07 17:03:20;;;;;;;;;;;22.60;46.20;;;;;;8343172;27;19997;-60
2024/04/07 17:07:21;;;;;;;;;;;22.60;46.20;;;;;;8340833;28;19920;-50
2024/04/07 17:11:22;;;;;;;;;;;22.60;45.80;;;;;;8338587;27;20305;-57
2024/04/07 17:15:22;;;;;;;;;;;22.60;46.60;;;;;;8331415;27;19932;-55
2024/04/07 17:19:23;;;;;;;;;;;22.70;46.10;;;;;;8326774;27;19918;-59
2024/04/07 17:23:23;;;;;;;;;;;22.70;46.30;;;;;;8340962;27;20346;-63
2024/04/07 17:27:24;;;;;;;;;;;22.70;46.60;;;;;;8344064;27;19935;-60
2024/04/07 17:31:25;;;;;;;;;;;22.70;47.80;;;;;;8342004;28;19924;-55
2024/04/07 17:35:25;;;;;;;;;;;22.80;48.40;;;;;;8336843;28;20405;-57
2024/04/07 17:39:26;;;;;;;;;;;22.80;48.20;;;;;;8349422;28;19912;-57
2024/04/07 17:43:26;;;;;;;;;;;22.70;48.40;;;;;;8342580;28;19925;-54
2024/04/07 17:47:27;;;;;;;;;;;22.80;48.20;;;;;;8352650;27;19924;-59
2024/04/07 17:51:28;;;;;;;;;;;22.80;48.40;;;;;;8340948;27;20341;-61
2024/04/07 17:55:29;;;;;;;;;;;22.90;48.90;;;;;;8336473;28;19925;-60
2024/04/07 17:59:29;;;;;;;;;;;22.80;48.90;;;;;;8336641;27;19985;-59
2024/04/07 18:03:31;;;;;;;;;;;22.80;48.40;;;;;;8387302;28;19956;-61
2024/04/07 18:07:32;;;;;;;;;;;22.80;47.80;;;;;;8342532;27;20011;-60
2024/04/07 18:11:32;;;;;;;;;;;22.80;47.60;;;;;;8345105;27;19920;-59
2024/04/07 18:15:35;;;;;;;;;;;22.80;47.90;;;;;;8337977;27;21718;-55
2024/04/07 18:19:36;;;;;;;;;;;22.90;48.40;;;;;;8347172;27;19923;-58
2024/04/07 18:23:37;;;;;;;;;;;22.80;48.20;;;;;;8343798;27;20174;-62
2024/04/07 18:27:38;;;;;;;;;;;22.70;48.40;;;;;;8335050;28;19920;-57
2024/04/07 18:31:39;;;;;;;;;;;22.70;48.30;;;;;;8357254;27;19912;-57
2024/04/07 18:35:39;;;;;;;;;;;22.70;48.40;;;;;;8328528;28;19968;-58
2024/04/07 18:39:40;;;;;;;;;;;22.70;49.10;;;;;;8351563;27;20352;-58
2024/04/07 18:43:41;;;;;;;;;;;22.80;49.50;;;;;;8353285;27;19920;-59
2024/04/07 18:47:41;;;;;;;;;;;22.80;49.80;;;;;;8344182;27;19912;-58
2024/04/07 18:51:44;;;;;;;;;;;22.70;49.80;;;;;;8333338;27;19929;-61
2024/04/07 18:55:45;;;;;;;;;;;22.70;50.30;;;;;;8340225;27;19920;-59
2024/04/07 18:59:45;;;;;;;;;;;22.60;50.60;;;;;;8334199;27;19917;-61
2024/04/07 19:03:46;;;;;;;;;;;22.60;50.30;;;;;;8335351;28;20305;-58
2024/04/07 19:07:46;;;;;;;;;;;22.50;49.80;;;;;;8326966;28;19921;-62
2024/04/07 19:11:48;;;;;;;;;;;22.40;48.70;;;;;;8335752;27;19954;-60
2024/04/07 19:15:56;;;;;;;;;;;22.40;48.30;;;;;;8334893;27;19960;-60
2024/04/07 19:19:57;;;;;;;;;;;22.30;47.40;;;;;;8331197;27;20285;-63
2024/04/07 19:23:58;;;;;;;;;;;22.20;46.80;;;;;;8337143;27;19997;-66
2024/04/07 19:27:58;;;;;;;;;;;22.20;47.40;;;;;;8372668;27;19915;-58
2024/04/07 19:31:59;;;;;;;;;;;22.20;46.60;;;;;;8345136;27;19917;-57
2024/04/07 19:36:01;;;;;;;;;;;22.20;46.90;;;;;;8345278;28;20255;-57
2024/04/07 19:40:02;;;;;;;;;;;22.10;47.20;;;;;;8356145;28;20391;-58
2024/04/07 19:44:03;;;;;;;;;;;22.10;47.40;;;;;;8347079;27;19946;-59
2024/04/07 19:48:04;;;;;;;;;;;22.00;47.20;;;;;;8355620;27;19921;-59
2024/04/07 19:52:04;;;;;;;;;;;22.00;47.20;;;;;;8357640;28;20362;-56
2024/04/07 19:56:05;;;;;;;;;;;22.00;47.70;;;;;;8357565;28;19960;-59
2024/04/07 20:00:07;;;;;;;;;;;22.00;48.00;;;;;;8356740;27;19917;-61
2024/04/07 20:04:08;;;;;;;;;;;22.00;48.20;;;;;;8358739;28;19939;-57
2024/04/07 20:08:08;;;;;;;;;;;22.10;48.20;;;;;;8358185;28;19957;-58
2024/04/07 20:12:09;;;;;;;;;;;22.00;48.20;;;;;;8358904;27;19921;-56
2024/04/07 20:16:09;;;;;;;;;;;22.00;49.00;;;;;;8358659;28;19920;-60
2024/04/07 20:20:10;;;;;;;;;;;21.90;49.30;;;;;;8343809;28;20395;-59
2024/04/07 20:24:11;;;;;;;;;;;22.00;49.40;;;;;;8314877;28;20000;-54
2024/04/07 20:28:13;;;;;;;;;;;21.90;49.50;;;;;;8292572;28;20298;-59
2024/04/07 20:32:14;;;;;;;;;;;21.90;49.30;;;;;;8292642;28;20391;-58
2024/04/07 20:36:14;;;;;;;;;;;21.90;49.20;;;;;;8292320;28;19926;-56
2024/04/07 20:40:15;;;;;;;;;;;21.90;49.30;;;;;;8292335;28;20413;-55
2024/04/07 20:44:15;;;;;;;;;;;21.90;49.40;;;;;;8290272;28;20003;-51
2024/04/07 20:48:16;;;;;;;;;;;21.90;49.40;;;;;;8324907;28;19959;-58
2024/04/07 20:52:16;;;;;;;;;;;21.90;49.50;;;;;;8319143;28;19928;-57
2024/04/07 20:56:17;;;;;;;;;;;21.90;49.50;;;;;;8291869;28;19968;-55
2024/04/07 21:00:18;;;;;;;;;;;21.90;49.50;;;;;;8292062;28;20251;-57
2024/04/07 21:04:19;;;;;;;;;;;21.90;49.60;;;;;;8291833;28;19914;-57
2024/04/07 21:08:20;;;;;;;;;;;21.80;49.70;;;;;;8291591;28;19970;-53
2024/04/07 21:12:20;;;;;;;;;;;21.80;49.60;;;;;;8299668;28;19909;-55
2024/04/07 21:16:21;;;;;;;;;;;21.80;49.70;;;;;;8324281;28;19913;-60
2024/04/07 21:20:22;;;;;;;;;;;21.70;50.20;;;;;;8342673;28;20377;-58
2024/04/07 21:24:23;;;;;;;;;;;21.70;49.40;;;;;;8324853;27;19928;-60
2024/04/07 21:28:23;;;;;;;;;;;21.70;49.60;;;;;;8305886;28;19924;-58
2024/04/07 21:32:25;;;;;;;;;;;21.70;50.50;;;;;;8323683;28;20313;-58
2024/04/07 21:36:25;;;;;;;;;;;21.70;51.00;;;;;;8323503;28;19933;-57
2024/04/07 21:40:26;;;;;;;;;;;21.70;51.00;;;;;;8323624;28;20356;-58
2024/04/07 21:44:26;;;;;;;;;;;21.60;50.70;;;;;;8348914;27;19949;-58
2024/04/07 21:48:27;;;;;;;;;;;21.60;50.70;;;;;;8356393;28;19913;-58
2024/04/07 21:52:28;;;;;;;;;;;21.60;50.60;;;;;;8355904;28;20422;-58
2024/04/07 21:56:28;;;;;;;;;;;21.50;50.50;;;;;;8321877;28;19919;-57
2024/04/07 22:00:29;;;;;;;;;;;21.50;50.30;;;;;;8356336;28;19913;-57
2024/04/07 22:04:29;;;;;;;;;;;21.50;50.40;;;;;;8355918;28;19912;-58
2024/04/07 22:08:30;;;;;;;;;;;21.40;50.10;;;;;;8355588;28;19913;-58
2024/04/07 22:12:31;;;;;;;;;;;21.40;50.10;;;;;;8355520;27;20273;-57
2024/04/07 22:16:31;;;;;;;;;;;21.40;50.00;;;;;;8356149;28;19917;-58
2024/04/07 22:20:32;;;;;;;;;;;21.30;50.10;;;;;;8355415;27;19921;-57
2024/04/07 22:24:32;;;;;;;;;;;21.30;49.90;;;;;;8355541;28;19917;-57
2024/04/07 22:28:33;;;;;;;;;;;21.30;50.00;;;;;;8337953;28;19921;-57
2024/04/07 22:32:37;;;;;;;;;;;21.30;50.00;;;;;;8355426;28;19920;-57
2024/04/07 22:36:40;;;;;;;;;;;21.30;49.90;;;;;;8355104;28;19931;-57
2024/04/07 22:40:41;;;;;;;;;;;21.30;49.80;;;;;;8355258;28;19999;-57
2024/04/07 22:44:44;;;;;;;;;;;21.20;49.80;;;;;;8339190;28;19920;-57
2024/04/07 22:48:44;;;;;;;;;;;21.20;49.70;;;;;;8354923;28;20381;-57
2024/04/07 22:52:45;;;;;;;;;;;21.20;49.80;;;;;;8355077;28;20293;-57
2024/04/07 22:56:45;;;;;;;;;;;21.20;49.70;;;;;;8354967;28;19917;-56
2024/04/07 23:00:46;;;;;;;;;;;21.20;49.60;;;;;;8354774;28;19913;-57
2024/04/07 23:04:47;;;;;;;;;;;21.10;49.50;;;;;;8359462;28;19909;-57
2024/04/07 23:08:48;;;;;;;;;;;21.10;49.50;;;;;;8360481;28;19919;-57
2024/04/07 23:12:50;;;;;;;;;;;21.10;49.40;;;;;;8360275;28;19913;-57
2024/04/07 23:16:53;;;;;;;;;;;21.10;49.40;;;;;;8360366;28;20445;-56
2024/04/07 23:20:53;;;;;;;;;;;21.10;49.30;;;;;;8360137;28;19921;-57
2024/04/07 23:24:54;;;;;;;;;;;21.10;49.20;;;;;;8360161;27;19909;-57